createdAt,value
2019-03-21T00:02:11.457Z,11.40
2019-03-21T00:04:39.961Z,11.50
2019-03-21T00:07:06.983Z,11.50
2019-03-21T00:09:35.200Z,11.50
2019-03-21T00:12:07.386Z,11.40
2019-03-21T00:14:39.053Z,11.40
2019-03-21T00:17:09.864Z,11.40
2019-03-21T00:19:36.885Z,11.40
2019-03-21T00:22:04.387Z,11.30
2019-03-21T00:24:31.341Z,11.30
2019-03-21T00:26:58.423Z,11.30
2019-03-21T00:29:25.789Z,11.30
2019-03-21T00:31:53.005Z,11.30
2019-03-21T00:34:21.789Z,11.30
2019-03-21T00:36:48.927Z,11.30
2019-03-21T00:39:15.917Z,11.20
2019-03-21T00:41:43.062Z,11.20
2019-03-21T00:44:17.826Z,11.20
2019-03-21T00:46:39.210Z,11.20
2019-03-21T00:49:11.763Z,11.10
2019-03-21T00:51:38.845Z,11.20
2019-03-21T00:54:05.997Z,11.10
2019-03-21T00:56:33.165Z,11.10
2019-03-21T00:59:00.346Z,11.00
2019-03-21T01:01:27.465Z,10.90
2019-03-21T01:03:54.626Z,10.90
2019-03-21T01:06:22.069Z,10.90
2019-03-21T01:08:49.161Z,10.90
2019-03-21T01:11:16.281Z,11.00
2019-03-21T01:13:43.380Z,11.00
2019-03-21T01:16:10.563Z,10.90
2019-03-21T01:18:40.249Z,10.80
2019-03-21T01:21:07.338Z,10.80
2019-03-21T01:23:34.509Z,10.90
2019-03-21T01:26:04.889Z,10.90
2019-03-21T01:28:32.075Z,10.80
2019-03-21T01:30:59.422Z,10.80
2019-03-21T01:33:26.608Z,10.80
2019-03-21T01:35:53.717Z,10.80
2019-03-21T01:38:20.803Z,10.70
2019-03-21T01:40:56.450Z,10.70
2019-03-21T01:43:23.615Z,10.80
2019-03-21T01:45:50.783Z,10.80
2019-03-21T01:48:17.922Z,10.70
2019-03-21T01:50:45.017Z,10.70
2019-03-21T01:53:13.005Z,10.70
2019-03-21T01:55:40.163Z,10.70
2019-03-21T01:58:07.424Z,10.60
2019-03-21T02:00:37.486Z,10.60
2019-03-21T02:03:05.143Z,10.50
2019-03-21T02:05:32.264Z,10.50
2019-03-21T02:07:59.397Z,10.50
2019-03-21T02:10:26.495Z,10.50
2019-03-21T02:12:53.613Z,10.50
2019-03-21T02:15:20.752Z,10.50
2019-03-21T02:17:48.953Z,10.40
2019-03-21T02:20:18.865Z,10.40
2019-03-21T02:22:45.994Z,10.40
2019-03-21T02:25:19.177Z,10.30
2019-03-21T02:27:46.195Z,10.30
2019-03-21T02:30:20.557Z,10.30
2019-03-21T02:32:49.470Z,10.40
2019-03-21T02:35:17.263Z,10.40
2019-03-21T02:37:44.461Z,10.40
2019-03-21T02:40:17.038Z,10.30
2019-03-21T02:42:44.165Z,10.30
2019-03-21T02:45:13.360Z,10.30
2019-03-21T02:47:40.508Z,10.20
2019-03-21T02:50:14.118Z,10.20
2019-03-21T02:52:41.232Z,10.10
2019-03-21T02:55:09.897Z,10.10
2019-03-21T02:57:37.049Z,10.10
2019-03-21T03:00:22.282Z,10.10
2019-03-21T03:02:51.522Z,10.10
2019-03-21T03:05:22.400Z,10.00
2019-03-21T03:07:49.479Z,9.90
2019-03-21T03:10:19.685Z,9.90
2019-03-21T03:12:46.808Z,9.90
2019-03-21T03:15:23.732Z,9.90
2019-03-21T03:17:50.932Z,9.80
2019-03-21T03:20:17.917Z,9.80
2019-03-21T03:22:45.028Z,9.90
2019-03-21T03:25:15.198Z,10.00
2019-03-21T03:27:44.145Z,10.00
2019-03-21T03:30:14.240Z,10.00
2019-03-21T03:32:41.442Z,10.00
2019-03-21T03:35:10.530Z,10.10
2019-03-21T03:37:38.235Z,10.10
2019-03-21T03:40:14.308Z,10.10
2019-03-21T03:42:41.383Z,10.10
2019-03-21T03:45:18.037Z,10.10
2019-03-21T03:47:45.177Z,10.00
2019-03-21T03:50:12.270Z,9.90
2019-03-21T03:52:39.493Z,9.90
2019-03-21T03:55:10.230Z,9.90
2019-03-21T03:57:37.351Z,9.80
2019-03-21T04:00:10.832Z,9.90
2019-03-21T04:02:39.064Z,10.00
2019-03-21T04:05:09.937Z,10.00
2019-03-21T04:07:37.128Z,10.10
2019-03-21T04:10:10.627Z,10.00
2019-03-21T04:12:40.273Z,10.00
2019-03-21T04:15:10.370Z,10.00
2019-03-21T04:17:37.354Z,9.90
2019-03-21T04:20:13.475Z,9.80
2019-03-21T04:22:42.796Z,9.80
2019-03-21T04:25:12.954Z,9.80
2019-03-21T04:27:40.923Z,9.90
2019-03-21T04:30:11.654Z,9.80
2019-03-21T04:32:38.823Z,9.80
2019-03-21T04:35:08.890Z,9.70
2019-03-21T04:37:35.994Z,9.70
2019-03-21T04:40:06.129Z,9.60
2019-03-21T04:42:33.112Z,9.50
2019-03-21T04:45:00.332Z,9.40
2019-03-21T04:47:27.345Z,9.40
2019-03-21T04:49:54.472Z,9.30
2019-03-21T04:52:21.441Z,9.20
2019-03-21T04:54:48.605Z,9.20
2019-03-21T04:57:18.057Z,9.20
2019-03-21T04:59:45.188Z,9.10
2019-03-21T05:02:12.325Z,9.10
2019-03-21T05:04:39.473Z,9.10
2019-03-21T05:07:06.626Z,9.10
2019-03-21T05:09:34.862Z,9.10
2019-03-21T05:12:01.954Z,9.10
2019-03-21T05:14:29.008Z,9.10
2019-03-21T05:16:56.029Z,9.10
2019-03-21T05:19:23.841Z,9.10
2019-03-21T05:21:50.961Z,9.10
2019-03-21T05:24:18.008Z,9.10
2019-03-21T05:26:45.113Z,9.10
2019-03-21T05:29:12.332Z,9.10
2019-03-21T05:31:39.357Z,9.10
2019-03-21T05:34:06.330Z,9.10
2019-03-21T05:36:33.330Z,9.00
2019-03-21T05:39:00.377Z,9.10
2019-03-21T05:41:27.391Z,9.10
2019-03-21T05:44:10.326Z,9.10
2019-03-21T05:46:37.302Z,9.20
2019-03-21T05:49:04.388Z,9.10
2019-03-21T05:51:31.377Z,9.10
2019-03-21T05:53:58.505Z,9.00
2019-03-21T05:56:27.782Z,9.10
2019-03-21T05:58:54.844Z,9.00
2019-03-21T06:01:21.805Z,9.10
2019-03-21T06:03:51.368Z,9.20
2019-03-21T06:06:37.275Z,9.20
2019-03-21T06:09:07.951Z,9.20
2019-03-21T06:11:35.232Z,9.30
2019-03-21T06:14:02.344Z,9.30
2019-03-21T06:16:37.294Z,9.40
2019-03-21T06:19:04.693Z,9.30
2019-03-21T06:21:44.439Z,9.40
2019-03-21T06:24:21.150Z,9.40
2019-03-21T06:26:51.732Z,9.50
2019-03-21T06:29:18.843Z,9.50
2019-03-21T06:31:45.813Z,9.60
2019-03-21T06:34:13.237Z,9.50
2019-03-21T06:36:40.235Z,9.50
2019-03-21T06:39:08.002Z,9.50
2019-03-21T06:41:35.522Z,9.50
2019-03-21T06:44:04.935Z,9.50
2019-03-21T06:46:32.103Z,9.70
2019-03-21T06:48:59.227Z,10.00
2019-03-21T06:51:26.292Z,10.20
2019-03-21T06:53:53.387Z,10.20
2019-03-21T06:56:20.418Z,10.10
2019-03-21T06:58:49.815Z,10.00
2019-03-21T07:01:16.953Z,9.90
2019-03-21T07:03:44.246Z,9.90
2019-03-21T07:06:11.404Z,9.80
2019-03-21T07:08:38.596Z,9.80
2019-03-21T07:11:05.711Z,9.70
2019-03-21T07:13:32.867Z,9.70
2019-03-21T07:16:00.035Z,9.70
2019-03-21T07:18:27.335Z,9.60
2019-03-21T07:20:54.556Z,9.60
2019-03-21T07:23:21.674Z,9.60
2019-03-21T07:25:48.805Z,9.60
2019-03-21T07:28:15.951Z,9.70
2019-03-21T07:30:43.054Z,9.80
2019-03-21T07:33:10.185Z,9.80
2019-03-21T07:35:37.251Z,9.90
2019-03-21T07:38:04.356Z,9.90
2019-03-21T07:40:31.536Z,10.00
2019-03-21T07:42:58.675Z,10.00
2019-03-21T07:45:25.680Z,10.00
2019-03-21T07:47:52.819Z,10.00
2019-03-21T07:50:22.115Z,10.00
2019-03-21T07:52:49.220Z,10.00
2019-03-21T07:55:16.193Z,10.00
2019-03-21T07:57:43.253Z,10.10
2019-03-21T08:00:15.466Z,10.10
2019-03-21T08:02:42.567Z,10.10
2019-03-21T08:05:10.427Z,10.20
2019-03-21T08:07:37.500Z,10.20
2019-03-21T08:10:06.956Z,10.20
2019-03-21T08:12:36.412Z,10.30
2019-03-21T08:15:12.922Z,10.30
2019-03-21T08:17:40.272Z,10.40
2019-03-21T08:20:15.268Z,10.40
2019-03-21T08:22:42.425Z,10.50
2019-03-21T08:25:09.886Z,10.60
2019-03-21T08:27:37.360Z,10.70
2019-03-21T08:30:23.066Z,10.80
2019-03-21T08:32:51.009Z,10.80
2019-03-21T08:35:18.188Z,10.40
2019-03-21T08:37:45.301Z,10.10
2019-03-21T08:40:13.118Z,9.80
2019-03-21T08:42:41.057Z,9.60
2019-03-21T08:45:09.729Z,9.50
2019-03-21T08:47:37.130Z,9.50
2019-03-21T08:50:06.406Z,9.40
2019-03-21T08:52:34.445Z,9.30
2019-03-21T08:55:02.730Z,9.30
2019-03-21T08:57:29.823Z,9.30
2019-03-21T08:59:56.972Z,9.30
2019-03-21T09:02:24.914Z,9.40
2019-03-21T09:04:52.037Z,9.40
2019-03-21T09:07:19.217Z,9.40
2019-03-21T09:09:48.022Z,9.30
2019-03-21T09:12:15.114Z,9.40
2019-03-21T09:14:42.285Z,9.40
2019-03-21T09:17:09.382Z,9.60
2019-03-21T09:19:38.537Z,9.60
2019-03-21T09:22:05.697Z,9.80
2019-03-21T09:24:32.793Z,10.10
2019-03-21T09:27:02.313Z,10.60
2019-03-21T09:29:29.475Z,10.80
2019-03-21T09:31:56.655Z,10.80
2019-03-21T09:34:24.814Z,10.70
2019-03-21T09:36:51.893Z,10.70
2019-03-21T09:39:18.914Z,10.60
2019-03-21T09:41:45.917Z,10.70
2019-03-21T09:44:25.044Z,11.10
2019-03-21T09:46:52.118Z,11.80
2019-03-21T09:49:21.525Z,12.00
2019-03-21T09:51:48.684Z,12.30
2019-03-21T09:54:15.821Z,12.60
2019-03-21T09:56:42.981Z,12.90
2019-03-21T09:59:10.097Z,13.40
2019-03-21T10:01:37.130Z,13.90
2019-03-21T10:04:06.623Z,15.10
2019-03-21T10:06:33.649Z,15.30
2019-03-21T10:09:00.717Z,15.20
2019-03-21T10:11:27.765Z,14.90
2019-03-21T10:13:55.025Z,14.60
2019-03-21T10:16:21.991Z,14.20
2019-03-21T10:18:49.065Z,13.70
2019-03-21T10:21:16.189Z,13.40
2019-03-21T10:23:43.257Z,13.00
2019-03-21T10:26:10.272Z,12.80
2019-03-21T10:28:37.345Z,12.70
2019-03-21T10:31:04.313Z,12.50
2019-03-21T10:33:31.349Z,12.50
2019-03-21T10:35:58.445Z,12.60
2019-03-21T10:38:25.509Z,13.00
2019-03-21T10:40:52.525Z,13.20
2019-03-21T10:43:19.678Z,13.10
2019-03-21T10:45:46.693Z,12.80
2019-03-21T10:48:13.753Z,12.90
2019-03-21T10:50:40.760Z,12.90
2019-03-21T10:53:08.342Z,12.70
2019-03-21T10:55:35.404Z,12.60
2019-03-21T10:58:02.729Z,12.40
2019-03-21T11:00:29.772Z,12.20
2019-03-21T11:02:56.845Z,11.40
2019-03-21T11:05:23.893Z,10.80
2019-03-21T11:07:50.981Z,10.30
2019-03-21T11:10:18.109Z,10.20
2019-03-21T11:12:47.542Z,10.10
2019-03-21T11:15:14.781Z,10.10
2019-03-21T11:17:41.889Z,10.20
2019-03-21T11:20:09.023Z,10.60
2019-03-21T11:22:36.092Z,10.90
2019-03-21T11:25:05.510Z,10.90
2019-03-21T11:27:32.594Z,11.10
2019-03-21T11:29:59.616Z,11.20
2019-03-21T11:32:26.673Z,11.20
2019-03-21T11:34:56.219Z,11.30
2019-03-21T11:37:22.561Z,11.40
2019-03-21T11:39:49.589Z,11.40
2019-03-21T11:42:16.674Z,11.60
2019-03-21T11:44:43.703Z,11.70
2019-03-21T11:47:10.733Z,12.00
2019-03-21T11:49:37.768Z,12.50
2019-03-21T11:52:04.837Z,13.00
2019-03-21T11:54:31.902Z,13.40
2019-03-21T11:56:58.984Z,14.00
2019-03-21T11:59:41.376Z,14.00
2019-03-21T12:01:55.961Z,14.10
2019-03-21T12:04:23.861Z,14.30
2019-03-21T12:06:50.913Z,14.20
2019-03-21T12:09:17.949Z,13.70
2019-03-21T12:11:45.064Z,13.30
2019-03-21T12:14:12.114Z,13.70
2019-03-21T12:16:39.161Z,13.90
2019-03-21T12:19:06.198Z,13.70
2019-03-21T12:21:33.245Z,13.80
2019-03-21T12:24:00.297Z,14.00
2019-03-21T12:26:27.341Z,13.90
2019-03-21T12:28:59.790Z,13.70
2019-03-21T12:31:26.855Z,13.10
2019-03-21T12:33:53.902Z,13.40
2019-03-21T12:36:20.945Z,13.80
2019-03-21T12:38:48.825Z,13.70
2019-03-21T12:41:15.898Z,13.60
2019-03-21T12:43:42.981Z,13.60
2019-03-21T12:46:10.893Z,13.30
2019-03-21T12:48:39.122Z,13.20
2019-03-21T12:51:07.401Z,12.80
2019-03-21T12:53:34.493Z,12.60
2019-03-21T12:56:02.609Z,12.40
2019-03-21T12:58:29.703Z,12.20
2019-03-21T13:00:57.085Z,12.00
2019-03-21T13:03:24.221Z,11.00
2019-03-21T13:05:52.113Z,10.70
2019-03-21T13:08:19.225Z,10.30
2019-03-21T13:10:46.301Z,10.30
2019-03-21T13:13:13.420Z,10.30
2019-03-21T13:15:40.548Z,10.30
2019-03-21T13:18:07.778Z,10.50
2019-03-21T13:20:35.013Z,10.40
2019-03-21T13:23:02.030Z,10.50
2019-03-21T13:25:30.078Z,10.50
2019-03-21T13:27:57.130Z,10.30
2019-03-21T13:30:24.298Z,10.20
2019-03-21T13:32:51.829Z,10.20
2019-03-21T13:35:31.633Z,10.10
2019-03-21T13:37:48.770Z,9.80
2019-03-21T13:40:17.002Z,9.70
2019-03-21T13:42:44.061Z,9.40
2019-03-21T13:45:11.276Z,9.30
2019-03-21T13:47:38.462Z,9.50
2019-03-21T13:50:08.992Z,9.40
2019-03-21T13:52:36.134Z,9.30
2019-03-21T13:55:09.314Z,9.30
2019-03-21T13:57:36.453Z,9.50
2019-03-21T14:00:12.982Z,9.40
2019-03-21T14:02:42.565Z,9.40
2019-03-21T14:05:09.901Z,9.20
2019-03-21T14:07:37.006Z,9.10
2019-03-21T14:10:06.371Z,9.00
2019-03-21T14:12:33.519Z,8.90
2019-03-21T14:15:00.580Z,8.80
2019-03-21T14:17:27.626Z,8.70
2019-03-21T14:19:54.654Z,8.80
2019-03-21T14:22:21.752Z,8.90
2019-03-21T14:24:48.803Z,8.80
2019-03-21T14:27:15.818Z,8.90
2019-03-21T14:29:42.885Z,8.90
2019-03-21T14:32:09.889Z,8.80
2019-03-21T14:34:38.065Z,8.70
2019-03-21T14:37:05.202Z,8.70
2019-03-21T14:39:32.269Z,8.60
2019-03-21T14:41:59.288Z,8.50
2019-03-21T14:44:26.361Z,8.50
2019-03-21T14:46:53.384Z,8.50
2019-03-21T14:49:21.500Z,8.50
2019-03-21T14:51:48.513Z,8.50
2019-03-21T14:54:15.620Z,8.40
2019-03-21T14:56:42.643Z,8.40
2019-03-21T14:59:09.736Z,8.40
2019-03-21T15:01:36.733Z,8.30
2019-03-21T15:04:03.749Z,8.20
2019-03-21T15:06:30.797Z,8.10
2019-03-21T15:08:57.833Z,8.10
2019-03-21T15:11:24.813Z,8.10
2019-03-21T15:13:51.850Z,8.00
2019-03-21T15:16:18.850Z,8.00
2019-03-21T15:18:46.666Z,8.00
2019-03-21T15:21:13.701Z,7.90
2019-03-21T15:23:41.198Z,7.70
2019-03-21T15:26:08.307Z,7.70
2019-03-21T15:28:35.352Z,7.60
2019-03-21T15:31:02.351Z,7.60
2019-03-21T15:33:29.313Z,7.60
2019-03-21T15:35:56.317Z,7.50
2019-03-21T15:38:23.345Z,7.50
2019-03-21T15:40:50.307Z,7.50
2019-03-21T15:43:17.355Z,7.50
2019-03-21T15:45:49.780Z,7.50
2019-03-21T15:48:16.977Z,7.40
2019-03-21T15:50:44.195Z,7.50
2019-03-21T15:53:11.285Z,7.40
2019-03-21T15:55:38.408Z,7.40
2019-03-21T15:58:05.565Z,7.40
2019-03-21T16:00:40.665Z,7.50
2019-03-21T16:03:09.740Z,7.50
2019-03-21T16:05:37.141Z,7.50
2019-03-21T16:08:05.194Z,7.50
2019-03-21T16:10:32.361Z,7.40
2019-03-21T16:12:59.520Z,7.50
2019-03-21T16:15:29.050Z,7.50
2019-03-21T16:17:56.226Z,7.50
2019-03-21T16:20:23.389Z,7.50
2019-03-21T16:22:50.521Z,7.50
2019-03-21T16:25:17.654Z,7.50
2019-03-21T16:27:44.770Z,7.50
2019-03-21T16:30:12.461Z,7.50
2019-03-21T16:32:40.651Z,7.40
2019-03-21T16:35:08.122Z,7.40
2019-03-21T16:37:35.607Z,7.50
2019-03-21T16:40:08.006Z,7.50
2019-03-21T16:42:37.071Z,7.40
2019-03-21T16:45:06.854Z,7.50
2019-03-21T16:47:34.024Z,7.50
2019-03-21T16:50:01.204Z,7.40
2019-03-21T16:52:28.398Z,7.50
2019-03-21T16:54:55.559Z,7.50
2019-03-21T16:57:23.018Z,7.50
2019-03-21T16:59:50.172Z,7.50
2019-03-21T17:02:17.275Z,7.60
2019-03-21T17:04:44.509Z,7.60
2019-03-21T17:07:11.895Z,7.60
2019-03-21T17:09:38.931Z,7.60
2019-03-21T17:12:06.529Z,7.60
2019-03-21T17:14:33.662Z,7.50
2019-03-21T17:17:01.909Z,7.60
2019-03-21T17:19:29.057Z,7.60
2019-03-21T17:21:56.228Z,7.60
2019-03-21T17:24:29.255Z,7.60
2019-03-21T17:26:54.457Z,7.60
2019-03-21T17:29:21.464Z,7.60
2019-03-21T17:31:50.905Z,7.60
2019-03-21T17:34:17.941Z,7.70
2019-03-21T17:36:44.986Z,7.60
2019-03-21T17:39:12.014Z,7.60
2019-03-21T17:41:39.088Z,7.60
2019-03-21T17:44:06.117Z,7.50
2019-03-21T17:46:33.263Z,7.50
2019-03-21T17:49:00.428Z,7.50
2019-03-21T17:51:27.681Z,7.40
2019-03-21T17:53:54.729Z,7.30
2019-03-21T17:56:21.761Z,7.30
2019-03-21T17:58:48.942Z,7.30
2019-03-21T18:01:16.405Z,7.30
2019-03-21T18:03:43.538Z,7.30
2019-03-21T18:06:10.618Z,7.30
2019-03-21T18:08:37.582Z,7.30
2019-03-21T18:11:04.642Z,7.30
2019-03-21T18:13:31.677Z,7.30
2019-03-21T18:15:58.833Z,7.30
2019-03-21T18:18:25.857Z,7.30
2019-03-21T18:20:53.315Z,7.30
2019-03-21T18:23:20.281Z,7.20
2019-03-21T18:25:47.484Z,7.20
2019-03-21T18:28:14.454Z,7.10
2019-03-21T18:30:41.472Z,7.10
2019-03-21T18:33:08.536Z,7.00
2019-03-21T18:35:35.563Z,7.00
2019-03-21T18:38:02.671Z,7.00
2019-03-21T18:40:29.781Z,6.90
2019-03-21T18:42:56.801Z,6.90
2019-03-21T18:45:24.557Z,6.90
2019-03-21T18:47:51.760Z,6.80
2019-03-21T18:50:18.785Z,6.80
2019-03-21T18:52:46.024Z,6.80
2019-03-21T18:55:13.201Z,6.80
2019-03-21T18:57:40.370Z,6.80
2019-03-21T19:00:19.953Z,6.70
2019-03-21T19:02:47.083Z,6.70
2019-03-21T19:05:14.224Z,6.70
2019-03-21T19:07:41.229Z,6.70
2019-03-21T19:10:13.432Z,6.70
2019-03-21T19:12:40.598Z,6.70
2019-03-21T19:15:11.097Z,6.80
2019-03-21T19:17:38.289Z,6.80
2019-03-21T19:20:16.759Z,6.80
2019-03-21T19:22:46.748Z,6.90
2019-03-21T19:25:18.807Z,6.90
2019-03-21T19:27:43.169Z,6.90
2019-03-21T19:30:16.944Z,6.90
2019-03-21T19:32:46.393Z,6.90
2019-03-21T19:35:15.337Z,6.90
2019-03-21T19:37:42.476Z,6.80
2019-03-21T19:40:16.924Z,6.80
2019-03-21T19:42:44.009Z,6.80
2019-03-21T19:45:12.942Z,6.80
2019-03-21T19:47:41.113Z,6.80
2019-03-21T19:50:15.617Z,6.70
2019-03-21T19:52:42.797Z,6.70
2019-03-21T19:55:10.357Z,6.70
2019-03-21T19:57:37.402Z,6.70
2019-03-21T20:00:10.783Z,6.80
2019-03-21T20:02:38.301Z,6.80
2019-03-21T20:05:07.722Z,6.90
2019-03-21T20:07:36.629Z,6.90
2019-03-21T20:10:05.325Z,7.00
2019-03-21T20:12:32.333Z,7.00
2019-03-21T20:14:59.353Z,7.00
2019-03-21T20:17:27.367Z,7.00
2019-03-21T20:19:54.449Z,7.00
2019-03-21T20:22:21.478Z,7.00
2019-03-21T20:24:49.681Z,7.00
2019-03-21T20:27:17.527Z,7.00
2019-03-21T20:29:44.633Z,7.00
2019-03-21T20:32:20.098Z,7.00
2019-03-21T20:34:40.609Z,7.00
2019-03-21T20:37:07.658Z,7.10
2019-03-21T20:39:34.710Z,7.10
2019-03-21T20:42:01.739Z,7.10
2019-03-21T20:44:28.857Z,7.20
2019-03-21T20:46:55.922Z,7.20
2019-03-21T20:49:22.932Z,7.20
2019-03-21T20:51:55.281Z,7.30
2019-03-21T20:54:22.379Z,7.30
2019-03-21T20:56:50.424Z,7.30
2019-03-21T20:59:17.516Z,7.40
2019-03-21T21:01:44.550Z,7.40
2019-03-21T21:04:11.625Z,7.40
2019-03-21T21:06:38.632Z,7.50
2019-03-21T21:09:06.734Z,7.50
2019-03-21T21:11:35.244Z,7.50
2019-03-21T21:14:04.100Z,7.50
2019-03-21T21:16:31.147Z,7.50
2019-03-21T21:18:58.204Z,7.50
2019-03-21T21:21:27.540Z,7.50
2019-03-21T21:23:54.682Z,7.70
2019-03-21T21:26:21.683Z,7.70
2019-03-21T21:28:48.794Z,7.80
2019-03-21T21:31:16.786Z,7.90
2019-03-21T21:33:43.845Z,7.90
2019-03-21T21:36:21.678Z,8.00
2019-03-21T21:38:39.813Z,8.00
2019-03-21T21:41:06.853Z,8.10
2019-03-21T21:43:34.873Z,8.20
2019-03-21T21:46:01.897Z,8.20
2019-03-21T21:48:28.987Z,8.30
2019-03-21T21:50:56.033Z,8.40
2019-03-21T21:53:23.897Z,8.40
2019-03-21T21:55:50.957Z,8.50
2019-03-21T21:58:18.021Z,8.50
2019-03-21T22:00:45.142Z,8.50
2019-03-21T22:03:12.191Z,8.60
2019-03-21T22:05:39.196Z,8.70
2019-03-21T22:08:06.273Z,8.80
2019-03-21T22:10:35.303Z,8.80
2019-03-21T22:13:03.395Z,8.90
2019-03-21T22:15:30.514Z,8.90
2019-03-21T22:17:57.587Z,9.00
2019-03-21T22:20:24.707Z,9.00
2019-03-21T22:22:52.573Z,9.10
2019-03-21T22:25:19.715Z,9.10
2019-03-21T22:27:46.793Z,9.20
2019-03-21T22:30:18.188Z,9.20
2019-03-21T22:32:45.233Z,9.20
2019-03-21T22:35:12.249Z,9.20
2019-03-21T22:37:39.358Z,9.30
2019-03-21T22:40:14.603Z,9.30
2019-03-21T22:42:41.898Z,9.30
2019-03-21T22:45:13.430Z,9.30
2019-03-21T22:47:40.597Z,9.40
2019-03-21T22:50:10.129Z,9.40
2019-03-21T22:52:37.290Z,9.50
2019-03-21T22:55:05.420Z,9.50
2019-03-21T22:57:32.451Z,9.60
2019-03-21T22:59:59.565Z,9.70
2019-03-21T23:02:27.585Z,9.70
2019-03-21T23:04:54.653Z,9.70
2019-03-21T23:07:21.630Z,9.70
2019-03-21T23:09:48.713Z,9.80
2019-03-21T23:12:15.734Z,9.70
2019-03-21T23:14:42.868Z,9.70
2019-03-21T23:17:09.891Z,9.70
2019-03-21T23:19:39.425Z,9.80
2019-03-21T23:22:06.446Z,9.80
2019-03-21T23:24:33.567Z,9.90
2019-03-21T23:27:01.737Z,9.80
2019-03-21T23:29:28.938Z,9.80
2019-03-21T23:31:56.102Z,9.70
2019-03-21T23:34:23.229Z,9.60
2019-03-21T23:36:50.319Z,9.60
2019-03-21T23:39:17.428Z,9.60
2019-03-21T23:41:44.585Z,9.50
2019-03-21T23:44:11.701Z,9.50
2019-03-21T23:46:39.690Z,9.40
2019-03-21T23:49:06.929Z,9.40
2019-03-21T23:51:34.099Z,9.40
2019-03-21T23:54:01.161Z,9.50
2019-03-21T23:56:29.334Z,9.50
2019-03-21T23:58:58.824Z,9.50
